Time;durP1;ratioP1;P1;durP2;ratioP2;P2;SDS_P1;SDS_P2;PMS_P1;PMS_P2;Temp;Humidity;BMP_temperature;BMP_pressure;BME280_temperature;BME280_humidity;BME280_pressure;Samples;Min_cycle;Max_cycle;Signal;HPM_P1;HPM_P2
2021/05/31 00:01:48;;;;;;;16.17;8.70;;;9.10;99.90;;;;;;5076207;28;20208;-73
2021/05/31 00:04:35;;;;;;;21.67;7.87;;;9.10;99.90;;;;;;5076252;28;20559;-72
2021/05/31 00:07:23;;;;;;;11.90;7.13;;;9.10;99.90;;;;;;5075796;28;20226;-72
2021/05/31 00:10:10;;;;;;;18.07;8.17;;;9.10;99.90;;;;;;5069942;28;20201;-72
2021/05/31 00:12:57;;;;;;;16.43;7.43;;;9.10;99.90;;;;;;5068177;28;20274;-72
2021/05/31 00:15:45;;;;;;;23.30;9.97;;;9.00;99.90;;;;;;5075823;28;20234;-72
2021/05/31 00:18:32;;;;;;;15.40;8.80;;;9.00;99.90;;;;;;5076233;28;20197;-72
2021/05/31 00:21:19;;;;;;;20.00;8.00;;;9.00;99.90;;;;;;5074984;28;20554;-72
2021/05/31 00:24:07;;;;;;;15.00;8.03;;;9.00;99.90;;;;;;5075291;28;20559;-72
2021/05/31 00:26:54;;;;;;;14.63;7.43;;;9.00;99.90;;;;;;5075396;28;20568;-72
2021/05/31 00:29:41;;;;;;;13.13;8.00;;;9.10;99.90;;;;;;5074037;28;20226;-72
2021/05/31 00:32:28;;;;;;;18.87;7.80;;;9.10;99.90;;;;;;5069847;28;20570;-72
2021/05/31 00:35:15;;;;;;;19.23;8.40;;;9.10;99.90;;;;;;5070867;28;20273;-72
2021/05/31 00:38:02;;;;;;;18.83;8.27;;;9.10;99.90;;;;;;5072507;28;20201;-72
2021/05/31 00:40:50;;;;;;;18.60;8.43;;;9.10;99.90;;;;;;5075098;28;20218;-72
2021/05/31 00:43:37;;;;;;;15.57;8.00;;;9.10;99.90;;;;;;5074783;28;20566;-73
2021/05/31 00:46:25;;;;;;;15.60;8.10;;;9.10;99.90;;;;;;5066843;28;20658;-72
2021/05/31 00:49:12;;;;;;;14.27;7.63;;;9.10;99.90;;;;;;5074909;28;20200;-72
2021/05/31 00:51:59;;;;;;;17.57;8.13;;;9.10;99.90;;;;;;5075284;28;20549;-72
2021/05/31 00:54:46;;;;;;;16.63;7.80;;;9.10;99.90;;;;;;5074183;28;20248;-72
2021/05/31 00:57:34;;;;;;;20.70;8.00;;;9.10;99.90;;;;;;5074067;28;20227;-72
2021/05/31 01:00:22;;;;;;;15.47;8.00;;;9.20;99.90;;;;;;5070426;28;20208;-72
2021/05/31 01:03:09;;;;;;;16.90;7.77;;;9.20;99.90;;;;;;5067598;28;20255;-72
2021/05/31 01:05:57;;;;;;;15.43;7.87;;;9.20;99.90;;;;;;5073600;28;20212;-73
2021/05/31 01:08:46;;;;;;;12.37;8.10;;;9.10;99.90;;;;;;5072739;28;20231;-72
2021/05/31 01:11:49;;;;;;;16.33;8.37;;;9.20;99.90;;;;;;5074776;28;20197;-72
2021/05/31 01:14:42;;;;;;;12.43;7.90;;;9.20;99.90;;;;;;5074349;28;20283;-73
2021/05/31 01:17:32;;;;;;;14.40;7.87;;;9.20;99.90;;;;;;5067604;28;20661;-72
2021/05/31 01:20:29;;;;;;;14.00;8.03;;;9.20;99.90;;;;;;5074628;28;20636;-72
2021/05/31 01:23:17;;;;;;;12.57;8.10;;;9.20;99.90;;;;;;5073628;28;20204;-72
2021/05/31 01:26:08;;;;;;;12.27;7.70;;;9.20;99.90;;;;;;5054435;28;20209;-72
2021/05/31 01:29:02;;;;;;;16.77;8.53;;;9.20;99.90;;;;;;5048333;28;20189;-72
2021/05/31 01:31:50;;;;;;;18.50;7.60;;;9.20;99.90;;;;;;5054603;28;20204;-72
2021/05/31 01:34:37;;;;;;;17.73;8.10;;;9.20;99.90;;;;;;5047972;28;20647;-72
2021/05/31 01:37:25;;;;;;;14.17;7.77;;;9.20;99.90;;;;;;5054289;28;20544;-73
2021/05/31 01:40:14;;;;;;;14.77;8.07;;;9.20;99.90;;;;;;5053658;28;20194;-72
2021/05/31 01:43:04;;;;;;;15.97;7.63;;;9.20;99.90;;;;;;5054676;28;20205;-72
2021/05/31 01:45:52;;;;;;;15.13;7.23;;;9.20;99.90;;;;;;5053661;28;20614;-72
2021/05/31 01:48:39;;;;;;;17.63;7.07;;;9.20;99.90;;;;;;5046867;28;20628;-72
2021/05/31 01:51:26;;;;;;;14.07;6.80;;;9.20;99.90;;;;;;5052426;28;20279;-72
2021/05/31 01:54:15;;;;;;;11.93;7.37;;;9.20;99.90;;;;;;5053678;28;20284;-72
2021/05/31 01:57:02;;;;;;;13.70;6.40;;;9.20;99.90;;;;;;5053574;28;20201;-73
2021/05/31 01:59:49;;;;;;;10.53;6.53;;;9.20;99.90;;;;;;5054132;28;20200;-72
2021/05/31 02:02:39;;;;;;;11.20;6.73;;;9.30;99.90;;;;;;5054115;28;20629;-73
2021/05/31 02:05:26;;;;;;;12.53;6.60;;;9.30;99.90;;;;;;5054103;28;20263;-72
2021/05/31 02:08:13;;;;;;;14.47;7.07;;;9.30;99.90;;;;;;5052426;28;20730;-72
2021/05/31 02:11:04;;;;;;;17.27;7.10;;;9.40;99.90;;;;;;5053885;28;20193;-73
2021/05/31 02:13:51;;;;;;;13.40;7.60;;;9.40;99.90;;;;;;5054085;28;20209;-73
2021/05/31 02:16:41;;;;;;;13.23;6.33;;;9.40;99.90;;;;;;5054236;28;20199;-72
2021/05/31 02:19:29;;;;;;;17.30;6.73;;;9.40;99.90;;;;;;5052707;28;20205;-72
2021/05/31 02:22:16;;;;;;;18.43;6.37;;;9.30;99.90;;;;;;5052789;28;20197;-72
2021/05/31 02:25:04;;;;;;;13.67;6.10;;;9.30;99.90;;;;;;5064671;28;20221;-72
2021/05/31 02:27:51;;;;;;;22.20;7.70;;;9.30;99.90;;;;;;5072485;28;20215;-72
2021/05/31 02:30:38;;;;;;;13.57;7.63;;;9.40;99.90;;;;;;5072444;28;20207;-70
2021/05/31 02:33:25;;;;;;;10.40;7.17;;;9.40;99.90;;;;;;5072409;28;20543;-70
2021/05/31 02:36:14;;;;;;;12.23;7.07;;;9.40;99.90;;;;;;5072288;28;20234;-70
2021/05/31 02:39:01;;;;;;;10.60;6.73;;;9.40;99.90;;;;;;5069807;28;20222;-70
2021/05/31 02:41:48;;;;;;;12.87;7.30;;;9.40;99.90;;;;;;5071890;28;20200;-71
2021/05/31 02:44:35;;;;;;;12.53;7.73;;;9.50;99.90;;;;;;5063400;28;20195;-70
2021/05/31 02:47:22;;;;;;;12.17;7.13;;;9.50;99.90;;;;;;5072869;28;20232;-71
2021/05/31 02:50:11;;;;;;;15.67;7.40;;;9.60;99.90;;;;;;5072890;28;20213;-70
2021/05/31 02:52:59;;;;;;;16.47;7.73;;;9.60;99.90;;;;;;5073248;28;20201;-70
2021/05/31 02:55:46;;;;;;;10.80;6.57;;;9.60;99.90;;;;;;5071943;28;20276;-70
2021/05/31 02:58:33;;;;;;;10.43;6.57;;;9.60;99.90;;;;;;5072343;28;20532;-71
2021/05/31 03:01:20;;;;;;;10.37;5.77;;;9.60;99.90;;;;;;5061689;28;20663;-70
2021/05/31 03:04:07;;;;;;;12.60;6.27;;;9.70;99.90;;;;;;5072143;28;20284;-70
2021/05/31 03:06:54;;;;;;;14.27;6.33;;;9.70;99.90;;;;;;5071630;28;20629;-70
2021/05/31 03:09:43;;;;;;;11.93;6.30;;;9.70;99.90;;;;;;5065474;28;20192;-70
2021/05/31 03:12:30;;;;;;;10.80;5.90;;;9.70;99.90;;;;;;5056588;28;20200;-70
2021/05/31 03:15:17;;;;;;;13.87;5.93;;;9.60;99.90;;;;;;5072076;28;20193;-71
2021/05/31 03:18:06;;;;;;;8.67;5.83;;;9.70;99.90;;;;;;5073731;28;20271;-70
2021/05/31 03:20:53;;;;;;;10.40;5.80;;;9.60;99.90;;;;;;5070647;28;20196;-70
2021/05/31 03:23:40;;;;;;;9.30;5.70;;;9.70;99.90;;;;;;5076318;28;20255;-70
2021/05/31 03:26:28;;;;;;;12.60;5.40;;;9.70;99.90;;;;;;5077099;28;20200;-70
2021/05/31 03:29:15;;;;;;;9.53;5.93;;;9.70;99.90;;;;;;5069460;28;20193;-70
2021/05/31 03:32:03;;;;;;;11.40;5.90;;;9.80;99.90;;;;;;5075821;28;20196;-70
2021/05/31 03:34:50;;;;;;;9.47;5.43;;;9.90;99.90;;;;;;5076406;28;20207;-70
2021/05/31 03:37:37;;;;;;;9.10;5.37;;;10.00;99.90;;;;;;5076614;28;20199;-70
2021/05/31 03:40:25;;;;;;;9.80;5.60;;;10.00;99.90;;;;;;5069991;28;20235;-70
2021/05/31 03:43:14;;;;;;;8.63;5.00;;;10.10;99.90;;;;;;5076552;28;20198;-70
2021/05/31 03:46:01;;;;;;;17.13;5.57;;;10.10;99.90;;;;;;5075587;28;20200;-70
2021/05/31 03:48:48;;;;;;;12.40;5.93;;;10.10;99.90;;;;;;5074203;28;20299;-70
2021/05/31 03:51:35;;;;;;;14.80;5.40;;;10.10;99.90;;;;;;5070178;28;20665;-70
2021/05/31 03:54:22;;;;;;;14.53;6.30;;;10.10;99.90;;;;;;5075155;28;20567;-71
2021/05/31 03:57:09;;;;;;;11.63;5.57;;;10.20;99.90;;;;;;5076083;28;20545;-70
2021/05/31 03:59:58;;;;;;;14.43;6.00;;;10.20;99.90;;;;;;5070044;28;20282;-70
2021/05/31 04:02:45;;;;;;;11.00;5.67;;;10.20;99.90;;;;;;5076341;28;20211;-70
2021/05/31 04:05:34;;;;;;;12.27;6.10;;;10.20;99.90;;;;;;5076183;28;20645;-70
2021/05/31 04:11:35;;;;;;;8.67;5.93;;;10.20;99.90;;;;;;5074710;28;20202;-71
2021/05/31 04:14:22;;;;;;;13.07;5.23;;;10.30;99.90;;;;;;5074345;28;20211;-70
2021/05/31 04:17:11;;;;;;;9.00;5.57;;;10.20;99.90;;;;;;5061877;28;20197;-70
2021/05/31 04:19:58;;;;;;;8.93;6.40;;;10.30;99.90;;;;;;5075961;28;20560;-70
2021/05/31 04:22:46;;;;;;;12.33;6.37;;;10.30;99.90;;;;;;5068466;28;20201;-70
2021/05/31 04:25:33;;;;;;;10.57;6.47;;;10.40;99.90;;;;;;5075627;28;20278;-70
2021/05/31 04:28:20;;;;;;;12.33;7.17;;;10.50;99.90;;;;;;5075326;28;20227;-70
2021/05/31 04:31:07;;;;;;;11.40;7.63;;;10.50;99.90;;;;;;5074012;28;20202;-70
2021/05/31 04:33:55;;;;;;;11.50;6.77;;;10.60;99.90;;;;;;5075063;28;20205;-71
2021/05/31 04:36:43;;;;;;;17.80;6.20;;;10.70;99.90;;;;;;5075791;28;20653;-70
2021/05/31 04:39:30;;;;;;;12.00;7.33;;;10.70;99.90;;;;;;5068327;28;20193;-71
2021/05/31 04:42:17;;;;;;;15.47;7.83;;;10.80;99.90;;;;;;5073933;28;20197;-70
2021/05/31 04:45:06;;;;;;;13.13;7.03;;;10.80;99.90;;;;;;5074199;28;20193;-70
2021/05/31 04:47:53;;;;;;;17.40;8.93;;;10.90;99.90;;;;;;5074494;28;20216;-70
2021/05/31 04:50:42;;;;;;;16.17;9.93;;;10.90;99.90;;;;;;5074710;28;20196;-70
2021/05/31 04:53:29;;;;;;;20.80;10.83;;;11.00;99.90;;;;;;5075434;28;20205;-70
2021/05/31 04:56:16;;;;;;;21.43;9.73;;;11.10;99.90;;;;;;5067329;28;20224;-70
2021/05/31 04:59:03;;;;;;;19.73;9.37;;;11.20;99.90;;;;;;5074011;28;20540;-70
2021/05/31 05:01:50;;;;;;;16.47;7.70;;;11.10;99.90;;;;;;5074505;28;20248;-70
2021/05/31 05:04:37;;;;;;;12.83;6.50;;;11.10;99.90;;;;;;5073828;28;20210;-70
2021/05/31 05:07:26;;;;;;;11.20;6.43;;;11.20;99.90;;;;;;5073787;28;20218;-70
2021/05/31 05:10:14;;;;;;;18.70;6.70;;;11.20;99.90;;;;;;5074291;28;20205;-70
2021/05/31 05:13:01;;;;;;;11.87;6.17;;;11.30;99.90;;;;;;5073872;28;20201;-70
2021/05/31 05:15:49;;;;;;;13.70;6.43;;;11.40;99.90;;;;;;5074957;28;20281;-70
2021/05/31 05:18:43;;;;;;;11.47;6.40;;;11.60;99.90;;;;;;5074915;28;20189;-70
2021/05/31 05:21:31;;;;;;;11.40;6.20;;;11.70;99.90;;;;;;5074746;28;20196;-70
2021/05/31 05:24:19;;;;;;;15.17;6.20;;;11.90;99.90;;;;;;5068096;28;20226;-70
2021/05/31 05:27:06;;;;;;;8.23;4.57;;;12.10;99.90;;;;;;5074391;28;20198;-71
2021/05/31 05:29:54;;;;;;;9.93;4.40;;;12.20;99.90;;;;;;5066083;28;20222;-70
2021/05/31 05:32:47;;;;;;;9.43;4.50;;;12.40;99.90;;;;;;5074135;28;20209;-70
2021/05/31 05:35:37;;;;;;;9.00;4.50;;;12.40;99.90;;;;;;5064722;28;20207;-70
2021/05/31 05:38:41;;;;;;;10.40;4.57;;;12.40;99.90;;;;;;5073944;28;20229;-70
2021/05/31 05:41:36;;;;;;;6.50;4.07;;;12.50;99.90;;;;;;5067021;28;20281;-70
2021/05/31 05:47:44;;;;;;;6.53;4.10;;;12.80;99.90;;;;;;5068041;28;20219;-70
2021/05/31 05:50:31;;;;;;;10.23;4.57;;;13.00;99.90;;;;;;5066389;28;20207;-71
2021/05/31 05:53:18;;;;;;;8.60;3.97;;;13.00;99.90;;;;;;5073433;28;20274;-71
2021/05/31 05:56:06;;;;;;;9.23;3.80;;;13.20;1.00;;;;;;5074218;28;20214;-70
2021/05/31 05:58:56;;;;;;;9.13;4.67;;;13.20;1.00;;;;;;5074047;28;20201;-71
2021/05/31 06:01:44;;;;;;;5.80;3.57;;;13.30;99.90;;;;;;5064425;28;20197;-71
2021/05/31 06:04:33;;;;;;;6.07;3.77;;;13.40;1.00;;;;;;5071762;28;20206;-71
2021/05/31 06:07:20;;;;;;;9.67;3.87;;;13.60;1.00;;;;;;5072281;28;20308;-71
2021/05/31 06:10:09;;;;;;;6.10;3.63;;;13.60;1.00;;;;;;5072631;28;20240;-71
2021/05/31 06:12:56;;;;;;;5.70;4.00;;;13.70;1.00;;;;;;5064605;28;20209;-71
2021/05/31 06:15:44;;;;;;;6.67;3.90;;;13.80;99.90;;;;;;5072693;28;20201;-65
2021/05/31 06:18:32;;;;;;;6.60;3.40;;;14.00;1.00;;;;;;5062572;28;20279;-66
2021/05/31 06:21:19;;;;;;;4.53;3.07;;;14.10;99.90;;;;;;5073818;28;20681;-65
2021/05/31 06:24:07;;;;;;;5.30;3.27;;;14.10;8.40;;;;;;5073341;28;20246;-66
2021/05/31 06:26:54;;;;;;;6.57;3.90;;;14.20;99.90;;;;;;5066045;28;20539;-65
2021/05/31 06:29:41;;;;;;;6.33;3.43;;;14.30;1.00;;;;;;5073395;28;20238;-65
2021/05/31 06:32:30;;;;;;;8.83;3.80;;;14.30;99.90;;;;;;5065845;28;20229;-65
2021/05/31 06:35:17;;;;;;;7.87;3.90;;;14.40;99.90;;;;;;5073115;28;20200;-66
2021/05/31 06:38:04;;;;;;;7.77;3.70;;;14.60;1.00;;;;;;5073402;28;20673;-65
2021/05/31 06:40:51;;;;;;;6.03;3.67;;;14.50;1.00;;;;;;5064911;28;20201;-65
2021/05/31 06:43:38;;;;;;;9.80;3.53;;;14.60;1.00;;;;;;5072179;28;20282;-66
2021/05/31 06:46:25;;;;;;;7.53;3.70;;;14.70;1.00;;;;;;5072080;28;20657;-65
2021/05/31 06:49:14;;;;;;;8.37;3.60;;;14.70;99.90;;;;;;5073055;28;20593;-65
2021/05/31 06:52:02;;;;;;;8.17;3.20;;;14.70;99.90;;;;;;5076050;28;20284;-66
2021/05/31 06:54:49;;;;;;;7.53;3.10;;;14.70;99.90;;;;;;5079676;28;20200;-65
2021/05/31 06:57:36;;;;;;;6.90;3.53;;;14.80;99.90;;;;;;5065249;28;20205;-66
2021/05/31 07:00:24;;;;;;;4.77;3.30;;;14.80;99.90;;;;;;5076730;28;20550;-66
2021/05/31 07:03:11;;;;;;;6.77;3.47;;;14.70;1.00;;;;;;5064848;28;20196;-66
2021/05/31 07:05:59;;;;;;;4.83;3.10;;;14.70;1.00;;;;;;5067896;28;20570;-66
2021/05/31 07:08:46;;;;;;;7.07;3.20;;;14.50;1.00;;;;;;5072273;28;20221;-65
2021/05/31 07:11:34;;;;;;;8.07;3.20;;;14.60;1.00;;;;;;5072209;28;20398;-66
2021/05/31 07:14:22;;;;;;;7.70;2.97;;;14.70;1.00;;;;;;5072285;28;20623;-65
2021/05/31 07:17:09;;;;;;;8.53;3.30;;;14.90;1.00;;;;;;5070374;28;20202;-66
2021/05/31 07:19:56;;;;;;;4.50;3.00;;;14.90;1.00;;;;;;5072130;28;20196;-65
2021/05/31 07:22:45;;;;;;;13.43;3.00;;;15.00;1.00;;;;;;5073006;28;20203;-66
2021/05/31 07:25:32;;;;;;;4.00;2.80;;;15.00;1.00;;;;;;5073752;28;20245;-66
2021/05/31 07:28:19;;;;;;;7.33;2.87;;;15.10;99.90;;;;;;5071440;28;20298;-66
2021/05/31 07:31:06;;;;;;;7.07;3.10;;;15.10;99.90;;;;;;5071605;28;20605;-66
2021/05/31 07:33:53;;;;;;;6.63;3.10;;;15.40;1.00;;;;;;5072943;28;20189;-65
2021/05/31 07:36:40;;;;;;;9.23;3.13;;;15.50;99.90;;;;;;5072525;28;20583;-66
2021/05/31 07:39:28;;;;;;;4.57;3.10;;;15.70;99.90;;;;;;5072663;28;20262;-66
2021/05/31 07:42:15;;;;;;;5.00;2.50;;;15.70;99.90;;;;;;5072364;28;20208;-66
2021/05/31 07:45:03;;;;;;;4.63;2.60;;;15.80;99.90;;;;;;5071744;28;20275;-66
2021/05/31 07:47:50;;;;;;;4.37;2.30;;;15.70;95.80;;;;;;5071926;28;20224;-66
2021/05/31 07:50:37;;;;;;;5.27;2.87;;;15.70;38.40;;;;;;5072587;28;20211;-66
2021/05/31 07:53:24;;;;;;;6.50;2.90;;;15.60;1.00;;;;;;5071604;28;20205;-66
2021/05/31 07:56:13;;;;;;;7.40;2.60;;;15.50;17.20;;;;;;5072444;28;20242;-66
2021/05/31 07:59:00;;;;;;;7.93;2.60;;;15.50;1.00;;;;;;5076357;28;20188;-66
2021/05/31 08:01:47;;;;;;;5.17;2.87;;;15.50;1.00;;;;;;5076666;28;20218;-66
2021/05/31 08:04:34;;;;;;;4.07;2.30;;;15.40;1.00;;;;;;5073292;28;20547;-66
2021/05/31 08:07:21;;;;;;;4.23;2.30;;;15.40;1.00;;;;;;5074938;28;20225;-66
2021/05/31 08:10:08;;;;;;;4.80;2.43;;;15.30;1.00;;;;;;5074587;28;20862;-66
2021/05/31 08:12:57;;;;;;;5.77;2.57;;;15.20;1.00;;;;;;5075850;28;20198;-66
2021/05/31 08:15:44;;;;;;;4.47;2.03;;;15.20;1.00;;;;;;5074705;28;20208;-66
2021/05/31 08:18:31;;;;;;;3.13;2.27;;;15.20;1.00;;;;;;5065473;28;20286;-66
2021/05/31 08:21:18;;;;;;;6.17;2.67;;;15.30;1.00;;;;;;5074620;28;20283;-66
2021/05/31 08:24:05;;;;;;;5.93;2.30;;;15.50;1.00;;;;;;5074955;28;20255;-66
2021/05/31 08:26:52;;;;;;;6.33;2.30;;;15.40;1.00;;;;;;5074461;28;20204;-66
2021/05/31 08:29:41;;;;;;;4.07;1.90;;;15.40;1.00;;;;;;5074962;28;20702;-66
2021/05/31 08:32:28;;;;;;;3.20;1.90;;;15.30;1.00;;;;;;5075540;28;20211;-66
2021/05/31 08:35:15;;;;;;;3.40;2.03;;;15.30;1.00;;;;;;5074304;28;20220;-66
2021/05/31 08:38:03;;;;;;;4.93;2.00;;;15.40;1.00;;;;;;5075082;28;20193;-66
2021/05/31 08:40:50;;;;;;;5.40;2.07;;;15.40;1.00;;;;;;5067935;28;20276;-66
2021/05/31 08:43:37;;;;;;;2.47;1.70;;;15.70;1.00;;;;;;5074464;28;20231;-66
2021/05/31 08:46:25;;;;;;;3.40;1.63;;;16.30;1.00;;;;;;5074628;28;20216;-66
2021/05/31 08:49:12;;;;;;;6.53;1.93;;;17.00;99.90;;;;;;5075302;28;20562;-66
2021/05/31 08:51:59;;;;;;;4.13;1.97;;;17.60;99.90;;;;;;5065635;28;20200;-66
2021/05/31 08:54:46;;;;;;;3.70;1.87;;;18.10;99.90;;;;;;5074513;28;20641;-66
2021/05/31 08:57:33;;;;;;;4.47;1.80;;;18.30;99.90;;;;;;5071154;28;20230;-67
2021/05/31 09:00:23;;;;;;;4.60;2.03;;;17.80;99.90;;;;;;5077632;28;20203;-66
2021/05/31 09:03:12;;;;;;;8.70;1.97;;;18.40;99.90;;;;;;5074512;28;20659;-66
2021/05/31 09:05:59;;;;;;;2.57;1.93;;;19.10;99.90;;;;;;5073866;28;20218;-66
2021/05/31 09:08:53;;;;;;;4.17;2.00;;;19.70;99.90;;;;;;5068516;28;20250;-66
2021/05/31 09:11:40;;;;;;;3.57;1.80;;;20.10;22.10;;;;;;5073874;28;20633;-66
2021/05/31 09:14:27;;;;;;;6.27;1.90;;;20.30;1.00;;;;;;5073838;28;20551;-66
2021/05/31 09:17:23;;;;;;;4.90;1.57;;;20.50;1.00;;;;;;5065808;28;20196;-67
2021/05/31 09:20:12;;;;;;;4.63;1.73;;;20.00;1.00;;;;;;5074851;28;20603;-66
2021/05/31 09:22:59;;;;;;;5.57;1.83;;;20.00;1.00;;;;;;5067172;28;20207;-67
2021/05/31 09:25:46;;;;;;;4.10;1.57;;;19.60;1.00;;;;;;5074379;28;20242;-66
2021/05/31 09:28:33;;;;;;;3.03;1.50;;;19.70;1.00;;;;;;5074565;28;20255;-66
2021/05/31 09:31:21;;;;;;;4.00;1.87;;;19.40;1.00;;;;;;5074063;28;20210;-67
2021/05/31 09:34:08;;;;;;;6.90;1.90;;;18.80;1.00;;;;;;5073396;28;20208;-66
2021/05/31 09:36:59;;;;;;;2.53;1.50;;;18.40;1.00;;;;;;5073200;28;20283;-67
2021/05/31 09:39:46;;;;;;;2.73;1.60;;;18.30;1.00;;;;;;5073680;28;20279;-66
2021/05/31 09:42:33;;;;;;;3.23;1.33;;;18.50;1.00;;;;;;5073312;28;20275;-66
2021/05/31 09:45:20;;;;;;;3.50;1.80;;;18.10;1.00;;;;;;5073180;28;20620;-66
2021/05/31 09:48:08;;;;;;;1.93;1.30;;;18.70;1.00;;;;;;5074017;28;20208;-67
2021/05/31 09:50:58;;;;;;;2.57;1.70;;;19.40;1.00;;;;;;5059016;28;20210;-66
2021/05/31 09:53:48;;;;;;;2.73;1.50;;;19.80;1.00;;;;;;5064061;28;20290;-66
2021/05/31 09:56:35;;;;;;;2.00;1.30;;;20.00;1.00;;;;;;5072965;28;20203;-66
2021/05/31 09:59:26;;;;;;;4.30;1.90;;;20.60;1.00;;;;;;5069212;28;20222;-66
2021/05/31 10:02:17;;;;;;;4.40;1.60;;;20.80;1.00;;;;;;5072743;28;20189;-66
2021/05/31 10:05:11;;;;;;;4.87;1.77;;;20.70;1.00;;;;;;5071842;28;20220;-66
2021/05/31 10:08:02;;;;;;;3.00;1.40;;;20.10;1.00;;;;;;5072932;28;20212;-67
2021/05/31 10:10:50;;;;;;;3.30;1.77;;;19.60;1.00;;;;;;5067667;28;20203;-66
2021/05/31 10:13:40;;;;;;;2.53;1.77;;;19.20;1.00;;;;;;5072047;28;20261;-66
2021/05/31 10:16:27;;;;;;;3.73;1.70;;;18.60;1.00;;;;;;5073850;28;20307;-66
2021/05/31 10:19:14;;;;;;;5.70;1.67;;;18.10;1.00;;;;;;5072349;28;20218;-66
2021/05/31 10:22:01;;;;;;;5.57;1.90;;;17.60;1.00;;;;;;5072922;28;20205;-66
2021/05/31 10:24:49;;;;;;;3.67;1.67;;;17.20;1.00;;;;;;5071763;28;20281;-66
2021/05/31 10:27:38;;;;;;;4.53;2.40;;;17.10;1.00;;;;;;5072508;28;20197;-66
2021/05/31 10:30:25;;;;;;;7.67;1.93;;;16.90;1.00;;;;;;5073232;28;20242;-67
2021/05/31 10:33:13;;;;;;;3.63;1.80;;;16.80;1.00;;;;;;5072904;28;20228;-66
2021/05/31 10:36:09;;;;;;;4.83;1.80;;;16.70;1.00;;;;;;5066157;28;20196;-66
2021/05/31 10:39:00;;;;;;;4.70;1.67;;;16.60;1.00;;;;;;5071578;28;20202;-67
2021/05/31 10:41:48;;;;;;;2.47;1.47;;;16.50;1.00;;;;;;5072286;28;20245;-66
2021/05/31 10:44:37;;;;;;;6.83;1.60;;;16.50;1.00;;;;;;5068589;28;20626;-66
2021/05/31 10:47:27;;;;;;;6.27;1.77;;;16.70;1.00;;;;;;5072071;28;20318;-66
2021/05/31 10:50:15;;;;;;;2.70;1.53;;;16.70;1.00;;;;;;5072021;28;20207;-66
2021/05/31 10:53:02;;;;;;;4.77;2.07;;;16.80;1.00;;;;;;5071785;28;20204;-66
2021/05/31 10:55:50;;;;;;;2.17;1.60;;;17.10;1.00;;;;;;5063203;28;20265;-66
2021/05/31 10:58:38;;;;;;;5.07;1.40;;;17.10;1.00;;;;;;5073199;28;20202;-65
2021/05/31 11:01:38;;;;;;;3.93;1.63;;;17.30;1.00;;;;;;5064815;28;20348;-66
2021/05/31 11:04:26;;;;;;;3.77;1.67;;;18.20;1.00;;;;;;5071110;28;20193;-66
2021/05/31 11:07:13;;;;;;;5.97;1.50;;;19.10;1.00;;;;;;5071886;28;20231;-66
2021/05/31 11:10:02;;;;;;;5.63;1.30;;;19.60;1.00;;;;;;5066743;28;20291;-66
2021/05/31 11:12:49;;;;;;;2.47;1.57;;;20.10;1.00;;;;;;5071638;28;20202;-67
2021/05/31 11:15:36;;;;;;;3.67;1.67;;;20.70;1.00;;;;;;5070418;28;20567;-66
2021/05/31 11:18:32;;;;;;;5.27;1.80;;;21.10;1.00;;;;;;5071771;28;20711;-66
2021/05/31 11:21:34;;;;;;;5.23;1.57;;;21.30;1.00;;;;;;5063145;28;20184;-66
2021/05/31 11:24:21;;;;;;;8.23;1.60;;;21.80;1.00;;;;;;5071467;28;20315;-66
2021/05/31 11:27:09;;;;;;;5.53;1.40;;;21.70;1.00;;;;;;5072240;28;20192;-66
2021/05/31 11:29:57;;;;;;;7.73;1.70;;;21.80;1.00;;;;;;5066489;28;20224;-66
2021/05/31 11:32:44;;;;;;;2.83;1.60;;;21.00;1.00;;;;;;5070407;28;20659;-66
2021/05/31 11:35:34;;;;;;;3.80;1.50;;;20.50;1.00;;;;;;5072778;28;20197;-66
2021/05/31 11:38:21;;;;;;;5.20;1.70;;;19.60;1.00;;;;;;5069685;28;20200;-66
2021/05/31 11:41:09;;;;;;;2.37;1.50;;;19.40;1.00;;;;;;5075998;28;20192;-66
2021/05/31 11:43:56;;;;;;;2.70;1.30;;;19.50;1.00;;;;;;5075441;28;20204;-66
2021/05/31 11:46:50;;;;;;;6.13;1.63;;;19.70;1.00;;;;;;5075679;28;20197;-66
2021/05/31 11:49:38;;;;;;;5.33;1.80;;;19.70;1.00;;;;;;5075213;28;20222;-66
2021/05/31 11:52:26;;;;;;;2.50;1.47;;;19.40;1.00;;;;;;5060268;28;20211;-66
2021/05/31 11:55:15;;;;;;;4.63;1.40;;;19.40;1.00;;;;;;5074694;28;20635;-66
2021/05/31 11:58:03;;;;;;;4.70;1.40;;;19.10;1.00;;;;;;5054640;28;20191;-66
2021/05/31 12:00:50;;;;;;;7.60;1.17;;;18.70;1.00;;;;;;5094617;28;20202;-66
2021/05/31 12:03:38;;;;;;;1.63;1.40;;;18.40;1.00;;;;;;5095183;28;20218;-66
2021/05/31 12:06:25;;;;;;;6.00;1.53;;;18.30;1.00;;;;;;5095002;28;20224;-66
2021/05/31 12:09:19;;;;;;;4.30;1.60;;;18.10;1.00;;;;;;5094793;28;20667;-66
2021/05/31 12:12:07;;;;;;;2.53;1.20;;;18.80;1.00;;;;;;5094846;28;20259;-66
2021/05/31 12:14:55;;;;;;;2.93;1.60;;;19.60;1.00;;;;;;5094779;28;20202;-66
2021/05/31 12:17:43;;;;;;;5.40;1.40;;;19.60;1.00;;;;;;5094673;28;20194;-66
2021/05/31 12:20:30;;;;;;;1.23;1.13;;;19.90;1.00;;;;;;5095066;28;20238;-66
2021/05/31 12:23:18;;;;;;;2.80;1.10;;;20.20;1.00;;;;;;5094528;28;20336;-67
2021/05/31 12:26:08;;;;;;;3.93;1.20;;;20.70;1.00;;;;;;5094560;28;20195;-66
2021/05/31 12:28:55;;;;;;;3.20;1.30;;;21.30;1.00;;;;;;5090625;28;20220;-66
2021/05/31 12:31:42;;;;;;;2.33;1.40;;;21.70;1.00;;;;;;5075174;28;20208;-66
2021/05/31 12:34:29;;;;;;;2.13;1.30;;;21.30;1.00;;;;;;5074046;28;20192;-66
2021/05/31 12:37:17;;;;;;;2.00;1.20;;;21.10;1.00;;;;;;5074119;28;20212;-66
2021/05/31 12:40:06;;;;;;;2.83;1.30;;;20.90;1.00;;;;;;5074133;28;20527;-66
2021/05/31 12:42:54;;;;;;;1.37;1.03;;;20.80;1.00;;;;;;5074180;28;20740;-66
2021/05/31 12:45:42;;;;;;;1.13;0.90;;;20.60;1.00;;;;;;5059828;28;20209;-66
2021/05/31 12:48:30;;;;;;;2.60;0.90;;;20.00;1.00;;;;;;5068554;28;20212;-66
2021/05/31 12:51:17;;;;;;;2.13;0.90;;;19.40;1.00;;;;;;5073188;28;20283;-66
2021/05/31 12:54:04;;;;;;;3.20;1.20;;;19.20;1.00;;;;;;5073468;28;20606;-66
2021/05/31 12:56:52;;;;;;;3.10;1.30;;;19.10;1.00;;;;;;5073481;28;20284;-66
2021/05/31 12:59:44;;;;;;;3.47;1.30;;;19.20;1.00;;;;;;5083602;28;20225;-66
2021/05/31 13:02:32;;;;;;;2.13;1.20;;;19.10;1.00;;;;;;5055459;28;20720;-66
2021/05/31 13:05:21;;;;;;;2.57;1.10;;;19.10;1.00;;;;;;5055474;28;20211;-66
2021/05/31 13:08:10;;;;;;;3.30;1.00;;;19.20;1.00;;;;;;5068645;28;20247;-66
2021/05/31 13:10:57;;;;;;;4.00;1.30;;;19.10;1.00;;;;;;5073125;28;20199;-66
2021/05/31 13:13:44;;;;;;;1.80;1.13;;;19.10;1.00;;;;;;5071871;28;20202;-67
2021/05/31 13:16:32;;;;;;;3.70;0.90;;;18.90;1.00;;;;;;5067690;28;20669;-66
2021/05/31 13:19:19;;;;;;;3.80;1.10;;;18.70;1.00;;;;;;5072501;28;20194;-66
2021/05/31 13:22:07;;;;;;;3.50;1.20;;;18.60;1.00;;;;;;5072642;28;20202;-66
2021/05/31 13:24:54;;;;;;;1.73;1.03;;;18.60;1.00;;;;;;5072491;28;20236;-66
2021/05/31 13:27:42;;;;;;;2.93;1.20;;;18.40;1.00;;;;;;5073439;28;20665;-66
2021/05/31 13:30:28;;;;;;;1.50;1.00;;;18.40;1.00;;;;;;5062192;28;20204;-66
2021/05/31 13:33:17;;;;;;;2.77;1.30;;;19.10;1.00;;;;;;5073714;28;20241;-67
2021/05/31 13:36:12;;;;;;;8.93;1.30;;;20.00;1.00;;;;;;5072857;28;20201;-66
2021/05/31 13:39:05;;;;;;;6.23;1.20;;;19.80;1.00;;;;;;5072534;28;20203;-66
2021/05/31 13:41:53;;;;;;;1.47;1.10;;;19.40;1.00;;;;;;5067758;28;20580;-66
2021/05/31 13:44:40;;;;;;;6.20;1.10;;;19.20;1.00;;;;;;5061432;28;20238;-66
2021/05/31 13:47:27;;;;;;;1.80;1.30;;;19.00;1.00;;;;;;5073637;28;20199;-66
2021/05/31 13:50:20;;;;;;;3.13;1.47;;;18.60;1.00;;;;;;5064110;28;20220;-66
2021/05/31 13:53:07;;;;;;;4.00;1.40;;;18.70;1.00;;;;;;5073406;28;20197;-66
2021/05/31 13:55:55;;;;;;;4.07;1.30;;;18.70;1.00;;;;;;5072323;28;20543;-66
2021/05/31 13:58:42;;;;;;;5.17;1.30;;;18.60;1.00;;;;;;5073984;28;20613;-66
2021/05/31 14:01:29;;;;;;;1.93;1.30;;;18.50;1.00;;;;;;5078952;28;20202;-66
2021/05/31 14:04:16;;;;;;;4.17;1.40;;;18.60;1.00;;;;;;5072130;28;20201;-66
2021/05/31 14:07:05;;;;;;;5.87;1.57;;;19.10;1.00;;;;;;5072437;28;20221;-66
2021/05/31 14:09:51;;;;;;;3.77;1.50;;;18.90;1.00;;;;;;5072960;28;20223;-66
2021/05/31 14:12:38;;;;;;;2.53;1.33;;;18.80;1.00;;;;;;5071014;28;20192;-66
2021/05/31 14:15:26;;;;;;;4.47;1.70;;;18.60;1.00;;;;;;5071279;28;20190;-66
2021/05/31 14:18:13;;;;;;;2.63;1.80;;;18.50;1.00;;;;;;5072575;28;20292;-66
2021/05/31 14:21:00;;;;;;;2.13;1.27;;;18.40;1.00;;;;;;5068386;28;20201;-66
2021/05/31 14:23:48;;;;;;;3.30;1.60;;;18.30;1.00;;;;;;5063852;28;20203;-66
2021/05/31 14:26:36;;;;;;;3.40;1.60;;;18.30;1.00;;;;;;5072167;28;20212;-66
2021/05/31 14:29:23;;;;;;;5.80;1.50;;;18.40;1.00;;;;;;5072495;28;20217;-66
2021/05/31 14:32:10;;;;;;;3.87;1.50;;;18.20;1.00;;;;;;5072756;28;20208;-66
2021/05/31 14:34:57;;;;;;;5.40;1.80;;;18.30;1.00;;;;;;5071774;28;20257;-66
2021/05/31 14:37:45;;;;;;;4.07;1.70;;;18.50;1.00;;;;;;5066849;28;20204;-66
2021/05/31 14:40:33;;;;;;;5.33;1.73;;;18.70;1.00;;;;;;5072072;28;20210;-66
2021/05/31 14:43:21;;;;;;;7.10;2.10;;;19.30;1.00;;;;;;5073151;28;20244;-66
2021/05/31 14:46:09;;;;;;;2.93;1.70;;;19.00;1.00;;;;;;5066198;28;20220;-66